Time;durP1;ratioP1;P1;durP2;ratioP2;P2;SDS_P1;SDS_P2;PMS_P1;PMS_P2;Temp;Humidity;BMP_temperature;BMP_pressure;BME280_temperature;BME280_humidity;BME280_pressure;Samples;Min_cycle;Max_cycle;Signal;HPM_P1;HPM_P2
2022/08/31 00:05:20;;;;;;;1.02;0.80;;;16.00;99.90;;;;;;4874972;29;20053;-67
2022/08/31 00:07:45;;;;;;;1.10;0.70;;;16.10;99.90;;;;;;4879927;29;20095;-67
2022/08/31 00:10:13;;;;;;;1.02;0.90;;;16.00;99.90;;;;;;4876959;29;20152;-68
2022/08/31 00:12:41;;;;;;;1.33;0.73;;;16.00;99.90;;;;;;4834115;29;20056;-67
2022/08/31 00:15:07;;;;;;;1.65;0.68;;;15.90;99.90;;;;;;4865139;29;20056;-67
2022/08/31 00:17:33;;;;;;;2.97;0.80;;;15.90;99.90;;;;;;4853795;29;20064;-66
2022/08/31 00:19:58;;;;;;;1.13;0.60;;;15.90;99.90;;;;;;4844981;29;20141;-67
2022/08/31 00:22:24;;;;;;;1.00;0.60;;;15.90;99.90;;;;;;4865949;29;20460;-66
2022/08/31 00:24:49;;;;;;;1.58;1.00;;;15.90;99.90;;;;;;4877870;29;20053;-67
2022/08/31 00:27:15;;;;;;;1.17;0.70;;;15.90;99.90;;;;;;4876097;29;20053;-67
2022/08/31 00:29:41;;;;;;;0.98;0.63;;;15.90;99.90;;;;;;4879782;29;20064;-67
2022/08/31 00:32:06;;;;;;;0.65;0.60;;;15.90;99.90;;;;;;4876913;29;20124;-67
2022/08/31 00:34:32;;;;;;;0.68;0.60;;;15.90;99.90;;;;;;4861020;29;20065;-67
2022/08/31 00:36:59;;;;;;;1.80;0.50;;;15.90;99.90;;;;;;4846543;29;20050;-67
2022/08/31 00:39:25;;;;;;;1.45;0.68;;;15.90;99.90;;;;;;4879166;29;20067;-67
2022/08/31 00:41:50;;;;;;;1.73;0.80;;;15.90;99.90;;;;;;4879731;29;20502;-67
2022/08/31 00:44:16;;;;;;;1.50;0.88;;;15.90;99.90;;;;;;4854852;29;20061;-67
2022/08/31 00:46:42;;;;;;;1.17;0.60;;;15.90;99.90;;;;;;4855447;29;20057;-66
2022/08/31 00:49:10;;;;;;;2.45;0.70;;;15.80;99.90;;;;;;4842591;29;20053;-67
2022/08/31 00:51:40;;;;;;;1.40;0.65;;;15.90;99.90;;;;;;4841975;29;20057;-67
2022/08/31 00:54:09;;;;;;;1.33;0.63;;;15.80;99.90;;;;;;4843625;29;20054;-67
2022/08/31 00:56:36;;;;;;;0.70;0.50;;;15.90;99.90;;;;;;4842066;29;20066;-67
2022/08/31 00:59:02;;;;;;;0.70;0.60;;;15.80;99.90;;;;;;4824947;29;20150;-67
2022/08/31 01:01:28;;;;;;;0.63;0.55;;;15.80;99.90;;;;;;4842481;29;20137;-68
2022/08/31 01:03:54;;;;;;;3.00;0.70;;;15.80;99.90;;;;;;4849076;29;20096;-67
2022/08/31 01:06:20;;;;;;;1.30;0.40;;;15.80;99.90;;;;;;4824733;29;20129;-67
2022/08/31 01:08:46;;;;;;;0.70;0.47;;;15.80;99.90;;;;;;4847351;29;20073;-67
2022/08/31 01:11:13;;;;;;;0.90;0.75;;;15.70;99.90;;;;;;4830050;29;20046;-67
2022/08/31 01:13:39;;;;;;;1.25;0.50;;;15.70;99.90;;;;;;4843868;29;20073;-66
2022/08/31 01:16:09;;;;;;;0.80;0.60;;;15.70;99.90;;;;;;4839340;29;20517;-67
2022/08/31 01:18:36;;;;;;;0.50;0.47;;;15.60;99.90;;;;;;4840849;29;20054;-67
2022/08/31 01:21:35;;;;;;;1.35;0.50;;;15.50;99.90;;;;;;4835276;29;20050;-66
2022/08/31 01:24:02;;;;;;;0.80;0.60;;;15.50;99.90;;;;;;4838530;29;20057;-66
2022/08/31 01:26:29;;;;;;;1.58;0.60;;;15.40;99.90;;;;;;4860837;29;20065;-67
2022/08/31 01:28:59;;;;;;;0.70;0.50;;;15.40;99.90;;;;;;4857463;29;20057;-67
2022/08/31 01:31:38;;;;;;;0.95;0.55;;;15.40;99.90;;;;;;4844391;29;20086;-67
2022/08/31 01:34:04;;;;;;;0.68;0.50;;;15.30;99.90;;;;;;4854386;29;20068;-67
2022/08/31 01:36:32;;;;;;;0.50;0.50;;;15.30;99.90;;;;;;4854928;29;20053;-66
2022/08/31 01:38:58;;;;;;;1.30;0.50;;;15.20;99.90;;;;;;4853755;29;20049;-67
2022/08/31 01:41:24;;;;;;;0.50;0.45;;;15.20;99.90;;;;;;4859172;29;20490;-67
2022/08/31 01:43:51;;;;;;;1.02;0.65;;;15.10;99.90;;;;;;4858851;29;20042;-67
2022/08/31 01:46:17;;;;;;;2.05;0.55;;;15.10;99.90;;;;;;4860164;29;20061;-66
2022/08/31 01:48:45;;;;;;;0.55;0.50;;;15.10;99.90;;;;;;4858688;29;20060;-67
2022/08/31 01:51:13;;;;;;;1.55;0.60;;;15.10;99.90;;;;;;4843380;29;20057;-66
2022/08/31 01:53:40;;;;;;;5.72;0.60;;;15.00;99.90;;;;;;4857276;29;20054;-66
2022/08/31 01:56:15;;;;;;;0.43;0.43;;;15.00;99.90;;;;;;4857989;29;20128;-66
2022/08/31 01:58:41;;;;;;;2.08;0.68;;;14.90;99.90;;;;;;4858760;29;20227;-67
2022/08/31 02:01:06;;;;;;;0.60;0.50;;;14.90;99.90;;;;;;4837306;29;20457;-67
2022/08/31 02:03:32;;;;;;;0.57;0.47;;;14.80;99.90;;;;;;4841859;29;20041;-67
2022/08/31 02:05:57;;;;;;;0.93;0.63;;;14.80;99.90;;;;;;4858061;29;20057;-66
2022/08/31 02:08:23;;;;;;;0.75;0.50;;;14.70;99.90;;;;;;4851417;29;20064;-66
2022/08/31 02:10:49;;;;;;;1.02;0.47;;;14.70;99.90;;;;;;4857690;29;20057;-67
2022/08/31 02:13:15;;;;;;;2.47;0.60;;;14.70;99.90;;;;;;4853816;29;20108;-67
2022/08/31 02:15:40;;;;;;;0.80;0.60;;;14.60;99.90;;;;;;4834206;29;20487;-66
2022/08/31 02:18:06;;;;;;;1.08;0.60;;;14.50;99.90;;;;;;4858777;29;20125;-66
2022/08/31 02:20:32;;;;;;;0.70;0.70;;;14.50;99.90;;;;;;4858792;29;20057;-66
2022/08/31 02:22:57;;;;;;;1.88;0.40;;;14.40;99.90;;;;;;4830113;29;20168;-67
2022/08/31 02:25:23;;;;;;;1.65;0.45;;;14.40;99.90;;;;;;4839985;29;20539;-66
2022/08/31 02:27:48;;;;;;;0.68;0.50;;;14.40;99.90;;;;;;4845515;29;20060;-67
2022/08/31 02:30:17;;;;;;;1.25;0.52;;;14.40;99.90;;;;;;4863490;29;20140;-67
2022/08/31 02:32:42;;;;;;;0.40;0.40;;;14.30;99.90;;;;;;4841813;29;20464;-67
2022/08/31 02:35:08;;;;;;;3.15;0.40;;;14.30;99.90;;;;;;4857892;29;20125;-67
2022/08/31 02:37:34;;;;;;;3.50;0.55;;;14.30;99.90;;;;;;4835317;29;20101;-68
2022/08/31 02:40:00;;;;;;;0.73;0.50;;;14.20;99.90;;;;;;4839943;29;20073;-67
2022/08/31 02:42:25;;;;;;;0.52;0.50;;;14.20;99.90;;;;;;4863333;29;20088;-67
2022/08/31 02:44:51;;;;;;;0.65;0.50;;;14.20;99.90;;;;;;4834192;29;20045;-66
2022/08/31 02:47:17;;;;;;;0.70;0.57;;;14.10;99.90;;;;;;4845552;29;20113;-67
2022/08/31 02:49:42;;;;;;;1.30;0.50;;;14.10;99.90;;;;;;4828608;29;20053;-65
2022/08/31 02:52:08;;;;;;;0.60;0.50;;;14.00;99.90;;;;;;4843371;29;20186;-67
2022/08/31 02:54:33;;;;;;;1.38;0.50;;;14.00;99.90;;;;;;4827605;29;20101;-66
2022/08/31 02:56:59;;;;;;;0.70;0.50;;;14.00;99.90;;;;;;4827710;29;20050;-67
2022/08/31 02:59:25;;;;;;;1.13;0.65;;;13.90;99.90;;;;;;4845309;29;20061;-66
2022/08/31 03:01:54;;;;;;;0.75;0.55;;;13.90;99.90;;;;;;4827865;29;20064;-67
2022/08/31 03:04:20;;;;;;;1.35;0.50;;;13.80;99.90;;;;;;4844336;29;20054;-66
2022/08/31 03:06:46;;;;;;;1.80;0.65;;;13.80;99.90;;;;;;4827789;29;20057;-66
2022/08/31 03:09:12;;;;;;;0.57;0.52;;;13.70;99.90;;;;;;4844132;29;20771;-66
2022/08/31 03:11:38;;;;;;;0.50;0.50;;;13.70;99.90;;;;;;4829509;29;20057;-65
2022/08/31 03:14:03;;;;;;;1.73;0.52;;;13.60;99.90;;;;;;4829883;29;20061;-66
2022/08/31 03:16:29;;;;;;;1.98;0.60;;;13.60;99.90;;;;;;4854091;29;20095;-67
2022/08/31 03:18:55;;;;;;;1.13;0.80;;;13.60;99.90;;;;;;4848281;29;20049;-66
2022/08/31 03:21:20;;;;;;;1.63;0.70;;;13.50;99.90;;;;;;4857573;29;20046;-66
2022/08/31 03:23:46;;;;;;;0.60;0.60;;;13.50;99.90;;;;;;4851718;29;20057;-66
2022/08/31 03:26:12;;;;;;;0.75;0.63;;;13.50;99.90;;;;;;4859042;29;20053;-67
2022/08/31 03:28:37;;;;;;;1.13;0.85;;;13.50;99.90;;;;;;4842224;29;20149;-66
2022/08/31 03:31:08;;;;;;;0.80;0.70;;;13.40;99.90;;;;;;4844778;29;20062;-67
2022/08/31 03:33:33;;;;;;;0.80;0.70;;;13.40;99.90;;;;;;4843855;29;20144;-66
2022/08/31 03:36:01;;;;;;;1.23;0.90;;;13.30;99.90;;;;;;4845811;29;20506;-66
2022/08/31 03:38:27;;;;;;;1.25;0.70;;;13.30;99.90;;;;;;4856507;29;20053;-67
2022/08/31 03:40:53;;;;;;;1.00;0.80;;;13.30;99.90;;;;;;4855937;29;20156;-67
2022/08/31 03:43:20;;;;;;;1.02;0.68;;;13.20;99.90;;;;;;4843732;29;20053;-66
2022/08/31 03:45:47;;;;;;;1.58;0.77;;;13.00;99.90;;;;;;4862668;29;20140;-67
2022/08/31 03:48:13;;;;;;;2.42;0.80;;;13.20;99.90;;;;;;4857533;29;20137;-67
2022/08/31 03:50:39;;;;;;;7.75;0.93;;;13.20;99.90;;;;;;4862829;29;20471;-67
2022/08/31 03:53:06;;;;;;;1.25;0.60;;;13.10;99.90;;;;;;4858540;29;20545;-67
2022/08/31 03:55:32;;;;;;;1.00;0.70;;;13.10;99.90;;;;;;4844950;29;20401;-66
2022/08/31 03:57:58;;;;;;;0.85;0.63;;;13.10;99.90;;;;;;4854871;29;20046;-66
2022/08/31 04:00:24;;;;;;;0.93;0.80;;;13.10;99.90;;;;;;4839201;29;20065;-66
2022/08/31 04:02:50;;;;;;;1.35;0.80;;;13.10;99.90;;;;;;4846136;29;20121;-66
2022/08/31 04:05:16;;;;;;;1.00;0.65;;;13.00;99.90;;;;;;4859419;29;20057;-65
2022/08/31 04:07:42;;;;;;;1.70;0.70;;;13.00;99.90;;;;;;4844392;29;20049;-68
2022/08/31 04:10:09;;;;;;;2.90;0.90;;;13.00;99.90;;;;;;4842513;29;20503;-67
2022/08/31 04:12:35;;;;;;;0.98;0.88;;;13.00;99.90;;;;;;4843747;29;20061;-67
2022/08/31 04:15:01;;;;;;;1.42;0.80;;;12.90;99.90;;;;;;4849827;29;20510;-67
2022/08/31 04:17:27;;;;;;;1.15;0.75;;;12.90;99.90;;;;;;4843454;29;20133;-66
2022/08/31 04:19:52;;;;;;;1.98;0.80;;;12.90;99.90;;;;;;4854306;29;20062;-67
2022/08/31 04:22:18;;;;;;;1.52;0.90;;;12.80;99.90;;;;;;4843741;29;20045;-66
2022/08/31 04:24:43;;;;;;;1.23;1.00;;;12.90;99.90;;;;;;4840515;29;20056;-66
2022/08/31 04:27:09;;;;;;;1.08;1.00;;;12.80;99.90;;;;;;4861770;29;20528;-66
2022/08/31 04:29:35;;;;;;;1.50;1.20;;;12.80;99.90;;;;;;4832537;29;20062;-67
2022/08/31 04:32:00;;;;;;;1.10;0.90;;;12.80;99.90;;;;;;4853993;29;20393;-66
2022/08/31 04:34:26;;;;;;;1.80;0.73;;;12.80;99.90;;;;;;4860034;29;20464;-67
2022/08/31 04:36:51;;;;;;;0.98;0.95;;;12.80;99.90;;;;;;4860231;29;20166;-67
2022/08/31 04:39:17;;;;;;;2.22;1.00;;;12.80;99.90;;;;;;4853943;29;20126;-67
2022/08/31 04:41:43;;;;;;;1.85;1.00;;;12.80;99.90;;;;;;4849555;29;20101;-67
2022/08/31 04:44:10;;;;;;;1.48;1.10;;;12.70;99.90;;;;;;4847828;29;20106;-67
2022/08/31 04:46:37;;;;;;;2.55;1.00;;;12.80;99.90;;;;;;4841117;29;20097;-68
2022/08/31 04:49:03;;;;;;;1.10;1.00;;;12.80;99.90;;;;;;4825950;29;20136;-67
2022/08/31 04:51:33;;;;;;;1.08;0.93;;;12.80;99.90;;;;;;4841513;29;20073;-66
2022/08/31 04:53:58;;;;;;;2.13;1.13;;;12.70;99.90;;;;;;4841777;29;20127;-68
2022/08/31 04:56:27;;;;;;;2.75;1.15;;;12.70;99.90;;;;;;4857640;29;20079;-66
2022/08/31 04:58:59;;;;;;;1.02;0.93;;;12.70;99.90;;;;;;4809886;29;20054;-67
2022/08/31 05:01:26;;;;;;;1.08;0.93;;;12.70;99.90;;;;;;4834711;29;20049;-67
2022/08/31 05:03:54;;;;;;;2.97;0.93;;;12.70;99.90;;;;;;4843021;29;20050;-67
2022/08/31 05:06:23;;;;;;;2.50;1.08;;;12.70;99.90;;;;;;4841723;29;20060;-67
2022/08/31 05:08:54;;;;;;;2.30;1.00;;;12.70;99.90;;;;;;4842738;29;20089;-67
2022/08/31 05:11:20;;;;;;;1.10;1.00;;;12.70;99.90;;;;;;4855660;29;20053;-67
2022/08/31 05:13:46;;;;;;;1.30;1.10;;;12.70;99.90;;;;;;4858988;29;20085;-66
2022/08/31 05:16:15;;;;;;;1.20;1.00;;;12.70;99.90;;;;;;4852987;29;20556;-67
2022/08/31 05:18:42;;;;;;;1.15;0.98;;;12.70;99.90;;;;;;4854948;29;20507;-67
2022/08/31 05:21:10;;;;;;;2.22;1.05;;;12.70;99.90;;;;;;4839844;29;20435;-67
2022/08/31 05:23:37;;;;;;;2.05;1.25;;;12.70;99.90;;;;;;4842893;29;20065;-66
2022/08/31 05:26:04;;;;;;;1.98;1.05;;;12.70;99.90;;;;;;4857890;29;20511;-67
2022/08/31 05:28:32;;;;;;;1.02;0.93;;;12.80;99.90;;;;;;4859638;29;20057;-66
2022/08/31 05:30:58;;;;;;;1.45;1.00;;;12.80;99.90;;;;;;4859209;29;20110;-66
2022/08/31 05:33:25;;;;;;;2.33;1.10;;;12.80;99.90;;;;;;4859574;29;20092;-67
2022/08/31 05:35:51;;;;;;;3.38;1.42;;;12.80;99.90;;;;;;4857084;29;20109;-66
2022/08/31 05:38:17;;;;;;;0.90;0.90;;;12.80;99.90;;;;;;4842954;29;20072;-66
2022/08/31 05:40:51;;;;;;;1.23;1.00;;;12.80;99.90;;;;;;4852425;29;20057;-67
2022/08/31 05:43:18;;;;;;;1.17;0.82;;;12.80;99.90;;;;;;4840377;29;20125;-67
2022/08/31 05:45:44;;;;;;;1.13;1.05;;;12.80;99.90;;;;;;4859827;29;20061;-67
2022/08/31 05:48:10;;;;;;;1.38;1.10;;;12.90;99.90;;;;;;4856415;29;20184;-67
2022/08/31 05:50:37;;;;;;;1.10;1.00;;;12.90;99.90;;;;;;4842478;29;20438;-66
2022/08/31 05:53:03;;;;;;;1.67;0.95;;;12.90;99.90;;;;;;4837272;29;20049;-66
2022/08/31 05:55:29;;;;;;;2.17;1.30;;;13.00;99.90;;;;;;4850947;29;20057;-67
2022/08/31 05:57:55;;;;;;;1.30;1.20;;;13.00;99.90;;;;;;4852214;29;20479;-66
2022/08/31 06:00:21;;;;;;;2.83;1.35;;;13.10;99.90;;;;;;4844169;29;19931;-68
2022/08/31 06:02:46;;;;;;;5.80;1.60;;;13.20;99.90;;;;;;4858910;29;20057;-67
2022/08/31 06:05:12;;;;;;;1.42;1.00;;;13.20;99.90;;;;;;4842650;29;20064;-68
2022/08/31 06:07:37;;;;;;;1.38;1.00;;;13.30;99.90;;;;;;4859601;29;20056;-68
2022/08/31 06:10:04;;;;;;;1.25;1.02;;;13.40;99.90;;;;;;4844030;29;20489;-68
2022/08/31 06:12:33;;;;;;;2.78;1.00;;;13.50;99.90;;;;;;4859593;29;20079;-68
2022/08/31 06:15:00;;;;;;;1.20;1.10;;;13.60;99.90;;;;;;4860652;29;20056;-67
2022/08/31 06:17:27;;;;;;;1.13;0.93;;;13.60;99.90;;;;;;4859196;29;20078;-68
2022/08/31 06:19:54;;;;;;;2.42;1.00;;;13.70;99.90;;;;;;4858729;29;20064;-67
2022/08/31 06:22:20;;;;;;;1.40;1.20;;;13.80;99.90;;;;;;4842796;29;20121;-68
2022/08/31 06:24:45;;;;;;;1.08;0.90;;;13.90;99.90;;;;;;4842024;29;20058;-68
2022/08/31 06:27:11;;;;;;;1.65;1.10;;;14.00;99.90;;;;;;4844151;29;20084;-68
2022/08/31 06:29:36;;;;;;;3.45;1.20;;;14.10;99.90;;;;;;4840645;29;20049;-68
2022/08/31 06:32:06;;;;;;;2.35;1.00;;;14.20;99.90;;;;;;4832895;29;20056;-67
2022/08/31 06:34:33;;;;;;;2.40;1.00;;;14.30;99.90;;;;;;4851336;29;20116;-67
2022/08/31 06:36:59;;;;;;;2.08;1.10;;;14.40;99.90;;;;;;4848383;29;20566;-68
2022/08/31 06:39:25;;;;;;;2.03;1.08;;;14.40;99.90;;;;;;4859445;29;20417;-67
2022/08/31 06:41:54;;;;;;;2.20;1.20;;;14.50;99.90;;;;;;4842331;29;20084;-68
2022/08/31 06:44:22;;;;;;;1.20;1.10;;;14.50;99.90;;;;;;4849399;29;20452;-67
2022/08/31 06:46:50;;;;;;;3.58;1.10;;;14.50;99.90;;;;;;4837995;29;20073;-68
2022/08/31 06:49:16;;;;;;;1.42;1.20;;;14.60;99.90;;;;;;4860622;29;20069;-67
2022/08/31 06:51:42;;;;;;;1.35;1.17;;;14.70;99.90;;;;;;4852362;29;20053;-67
2022/08/31 06:54:11;;;;;;;1.95;0.98;;;14.90;99.90;;;;;;4852963;29;20054;-67
2022/08/31 06:56:37;;;;;;;1.30;1.20;;;14.80;99.90;;;;;;4857968;29;20053;-68
2022/08/31 06:59:04;;;;;;;0.90;0.90;;;14.90;99.90;;;;;;4859486;29;20518;-67
2022/08/31 07:01:31;;;;;;;1.13;1.02;;;15.00;99.90;;;;;;4854101;29;20442;-67
2022/08/31 07:04:00;;;;;;;1.42;1.20;;;15.10;99.90;;;;;;4837431;29;20058;-67
2022/08/31 07:06:28;;;;;;;1.25;1.05;;;15.50;99.90;;;;;;4853922;29;20062;-67
2022/08/31 07:08:57;;;;;;;1.67;0.98;;;15.40;99.90;;;;;;4848466;29;20121;-67
2022/08/31 07:11:26;;;;;;;1.80;0.80;;;15.60;99.90;;;;;;4839603;29;20102;-67
2022/08/31 07:13:54;;;;;;;1.90;0.95;;;15.70;99.90;;;;;;4836662;29;20145;-68
2022/08/31 07:16:21;;;;;;;1.13;1.02;;;15.90;99.90;;;;;;4860320;29;20061;-67
2022/08/31 07:18:48;;;;;;;1.10;1.00;;;16.00;99.90;;;;;;4852870;29;20056;-68
2022/08/31 07:21:16;;;;;;;1.95;0.75;;;16.10;99.90;;;;;;4836246;29;20591;-67
2022/08/31 07:23:43;;;;;;;3.55;0.90;;;16.10;99.90;;;;;;4852963;29;20049;-67
2022/08/31 07:26:11;;;;;;;2.85;1.05;;;16.20;99.90;;;;;;4837782;29;20045;-69
2022/08/31 07:28:42;;;;;;;1.42;1.23;;;16.20;99.90;;;;;;4837545;29;20066;-68
2022/08/31 07:31:09;;;;;;;2.15;1.10;;;16.20;99.90;;;;;;4849583;29;20061;-67
2022/08/31 07:33:38;;;;;;;1.40;1.17;;;16.30;99.90;;;;;;4828318;29;20094;-67
2022/08/31 07:36:09;;;;;;;3.63;1.27;;;16.30;99.90;;;;;;4847250;29;20084;-67
2022/08/31 07:44:24;;;;;;;3.40;1.30;;;16.50;99.90;;;;;;4823325;29;20434;-67
2022/08/31 07:46:54;;;;;;;1.40;1.00;;;16.60;99.90;;;;;;4851941;29;20131;-68
2022/08/31 07:49:20;;;;;;;1.90;1.00;;;16.70;99.90;;;;;;4875711;29;20053;-67
2022/08/31 07:51:49;;;;;;;1.17;1.08;;;16.80;99.90;;;;;;4870067;29;20252;-66
2022/08/31 07:54:21;;;;;;;5.97;1.00;;;16.90;99.90;;;;;;4873249;29;20420;-68
2022/08/31 07:56:51;;;;;;;1.67;0.97;;;16.90;99.90;;;;;;4870456;29;20072;-67
2022/08/31 07:59:21;;;;;;;1.30;1.20;;;16.90;99.90;;;;;;4838856;29;20294;-67
2022/08/31 08:01:48;;;;;;;3.22;1.20;;;16.90;99.90;;;;;;4853721;29;20053;-68
2022/08/31 08:04:24;;;;;;;1.98;1.00;;;17.10;99.90;;;;;;4867017;29;20464;-68
2022/08/31 08:06:52;;;;;;;2.17;1.13;;;17.20;99.90;;;;;;4845391;29;20061;-68
2022/08/31 08:09:18;;;;;;;3.38;1.20;;;17.30;99.90;;;;;;4863657;29;20064;-66
2022/08/31 08:11:45;;;;;;;3.30;1.17;;;17.50;99.90;;;;;;4863847;29;20139;-67
2022/08/31 08:14:11;;;;;;;1.33;1.02;;;17.50;99.90;;;;;;4880765;29;20112;-67
2022/08/31 08:16:37;;;;;;;0.75;0.73;;;17.60;99.90;;;;;;4880814;29;20073;-67
2022/08/31 08:19:03;;;;;;;2.88;1.10;;;17.70;99.90;;;;;;4864312;29;20076;-67
2022/08/31 08:21:29;;;;;;;2.70;0.90;;;17.70;99.90;;;;;;4871403;29;20806;-68
2022/08/31 08:23:54;;;;;;;2.60;0.85;;;17.90;99.90;;;;;;4862244;29;20138;-67
2022/08/31 08:26:20;;;;;;;0.80;0.80;;;18.00;99.90;;;;;;4845867;29;20054;-67
2022/08/31 08:28:46;;;;;;;2.00;0.98;;;18.10;99.90;;;;;;4846379;29;20133;-68
2022/08/31 08:31:17;;;;;;;1.58;1.25;;;18.20;99.90;;;;;;4845375;29;20049;-67
2022/08/31 08:33:44;;;;;;;4.18;1.20;;;18.20;99.90;;;;;;4862411;29;20049;-68
2022/08/31 08:36:10;;;;;;;3.47;0.88;;;18.40;99.90;;;;;;4861730;29;20128;-68
2022/08/31 08:38:41;;;;;;;2.05;0.80;;;18.40;99.90;;;;;;4862417;29;20053;-68
2022/08/31 08:41:12;;;;;;;3.17;0.80;;;18.40;99.90;;;;;;4861464;29;20058;-68
2022/08/31 08:47:57;;;;;;;2.85;1.13;;;18.50;99.90;;;;;;4803844;29;20057;-69
2022/08/31 08:50:31;;;;;;;3.25;0.90;;;18.60;99.90;;;;;;4818181;29;20058;-66
2022/08/31 08:53:58;;;;;;;1.65;0.90;;;18.50;99.90;;;;;;4855712;29;20049;-70
2022/08/31 08:57:15;;;;;;;3.85;1.00;;;18.70;99.90;;;;;;4820775;29;20049;-68
2022/08/31 09:03:57;;;;;;;1.00;0.80;;;18.80;99.90;;;;;;4840786;29;20479;-69
2022/08/31 09:06:53;;;;;;;2.10;0.88;;;18.90;99.90;;;;;;4826013;29;20488;-66
2022/08/31 09:09:31;;;;;;;1.83;1.05;;;18.90;99.90;;;;;;4858977;29;20054;-68
2022/08/31 09:12:12;;;;;;;3.40;0.95;;;19.00;99.90;;;;;;4861110;29;20053;-68
2022/08/31 09:14:37;;;;;;;2.75;1.15;;;19.10;99.90;;;;;;4861653;29;20111;-68
2022/08/31 09:17:09;;;;;;;2.92;0.90;;;19.40;99.90;;;;;;4844777;29;20467;-67
2022/08/31 09:19:57;;;;;;;0.98;0.80;;;19.40;99.40;;;;;;4861394;29;20100;-67
2022/08/31 09:22:20;;;;;;;3.15;0.90;;;19.50;99.90;;;;;;4858499;29;20053;-67
2022/08/31 09:24:51;;;;;;;1.70;0.70;;;19.60;99.30;;;;;;4844668;29;20075;-66
2022/08/31 09:27:58;;;;;;;2.20;1.00;;;19.70;98.90;;;;;;4851458;29;20049;-67
2022/08/31 09:30:42;;;;;;;2.67;0.80;;;19.70;98.80;;;;;;4857535;29;20073;-69
2022/08/31 09:33:24;;;;;;;2.03;0.80;;;19.80;97.20;;;;;;4860515;29;20122;-67
2022/08/31 09:35:55;;;;;;;1.85;0.70;;;19.80;96.90;;;;;;4860749;29;20073;-67
2022/08/31 09:38:38;;;;;;;2.17;0.90;;;19.80;97.20;;;;;;4860532;29;20076;-67
2022/08/31 09:41:30;;;;;;;0.90;0.80;;;19.80;96.00;;;;;;4851277;29;20370;-66
2022/08/31 09:44:33;;;;;;;1.10;0.70;;;19.90;95.20;;;;;;4832541;29;20060;-66
2022/08/31 09:47:05;;;;;;;3.58;1.00;;;20.10;94.00;;;;;;4825816;29;20061;-67
2022/08/31 09:49:37;;;;;;;1.42;0.82;;;20.30;94.00;;;;;;4826233;29;20433;-67
2022/08/31 09:55:26;;;;;;;0.70;0.60;;;20.50;92.00;;;;;;4798370;29;20054;-67
2022/08/31 09:58:01;;;;;;;0.90;0.70;;;20.50;92.30;;;;;;4833380;29;20049;-67
2022/08/31 10:00:43;;;;;;;3.63;0.90;;;20.60;90.50;;;;;;4853682;29;20057;-68
2022/08/31 10:03:17;;;;;;;3.17;0.70;;;20.50;87.10;;;;;;4835560;29;20061;-68
2022/08/31 10:05:43;;;;;;;2.10;0.90;;;20.50;88.80;;;;;;4849273;29;20452;-67
2022/08/31 10:08:26;;;;;;;1.80;0.88;;;20.50;87.00;;;;;;4818276;29;20080;-67
2022/08/31 10:10:57;;;;;;;1.42;0.52;;;20.50;85.80;;;;;;4834395;29;20062;-67
2022/08/31 10:13:39;;;;;;;0.50;0.50;;;20.60;87.80;;;;;;4842134;29;20141;-68
2022/08/31 10:16:24;;;;;;;0.73;0.40;;;20.50;84.00;;;;;;4826170;29;20089;-68
2022/08/31 10:19:06;;;;;;;3.83;0.75;;;20.60;82.50;;;;;;4813140;29;20048;-68
2022/08/31 10:21:50;;;;;;;3.90;0.70;;;20.60;79.60;;;;;;4852552;29;20143;-67
2022/08/31 10:24:32;;;;;;;0.88;0.60;;;20.60;82.20;;;;;;4849519;29;20081;-67
2022/08/31 10:27:04;;;;;;;1.65;0.50;;;20.70;82.40;;;;;;4825568;29;20568;-70
2022/08/31 10:29:51;;;;;;;;;;;20.80;83.50;;;;;;4838290;29;20525;-68
2022/08/31 10:32:38;;;;;;;0.85;0.50;;;20.80;80.60;;;;;;4834830;29;19988;-67
2022/08/31 10:35:11;;;;;;;3.55;0.77;;;20.70;78.00;;;;;;4833088;29;20058;-68
2022/08/31 10:37:53;;;;;;;1.10;0.55;;;20.80;78.80;;;;;;4825196;29;20114;-67
2022/08/31 10:40:27;;;;;;;0.50;0.50;;;20.90;78.80;;;;;;4841918;29;20068;-67
2022/08/31 10:43:20;;;;;;;1.98;0.60;;;21.00;77.80;;;;;;4853665;29;20062;-67
2022/08/31 10:45:48;;;;;;;1.38;0.70;;;21.00;74.20;;;;;;4834867;29;20050;-67
2022/08/31 10:48:17;;;;;;;0.80;0.45;;;21.00;74.70;;;;;;4851378;29;20424;-67
2022/08/31 10:51:21;;;;;;;9.00;0.75;;;21.00;73.40;;;;;;4854978;29;20056;-67
2022/08/31 10:53:52;;;;;;;1.98;0.50;;;21.10;68.80;;;;;;4860629;29;20049;-67
2022/08/31 10:56:40;;;;;;;1.73;0.50;;;21.10;71.40;;;;;;4863471;29;20403;-67
2022/08/31 10:59:29;;;;;;;0.63;0.45;;;21.00;71.90;;;;;;4863815;29;20081;-67
2022/08/31 11:02:16;;;;;;;0.93;0.63;;;21.00;73.80;;;;;;4844195;29;20062;-68
2022/08/31 11:05:11;;;;;;;0.75;0.47;;;21.10;74.10;;;;;;4847589;29;20480;-67
2022/08/31 11:07:42;;;;;;;0.82;0.60;;;21.10;70.80;;;;;;4844702;29;20187;-67
2022/08/31 11:10:28;;;;;;;0.70;0.50;;;21.10;72.70;;;;;;4844795;29;20068;-67
2022/08/31 11:13:00;;;;;;;3.17;0.70;;;21.20;73.10;;;;;;4844332;29;20058;-66
2022/08/31 11:15:50;;;;;;;2.08;0.55;;;21.30;71.60;;;;;;4858669;29;20049;-68
2022/08/31 11:18:47;;;;;;;0.80;0.50;;;21.40;70.70;;;;;;4853634;29;20152;-67
2022/08/31 11:21:46;;;;;;;1.50;0.50;;;21.50;70.80;;;;;;4853660;29;20093;-67
2022/08/31 11:24:41;;;;;;;1.33;0.70;;;21.50;70.30;;;;;;4836800;29;20372;-67
2022/08/31 11:27:17;;;;;;;3.30;0.70;;;21.50;66.90;;;;;;4851089;29;20120;-66
2022/08/31 11:30:01;;;;;;;4.45;0.70;;;21.50;69.60;;;;;;4851232;29;20487;-67
2022/08/31 11:32:46;;;;;;;0.73;0.60;;;21.40;68.80;;;;;;4854498;29;20506;-67
2022/08/31 11:35:14;;;;;;;3.10;0.50;;;21.50;69.50;;;;;;4844672;29;20100;-67
2022/08/31 11:37:49;;;;;;;0.95;0.60;;;21.60;69.30;;;;;;4842660;29;20134;-68
2022/08/31 11:40:41;;;;;;;2.10;0.50;;;21.70;68.60;;;;;;4844443;29;20045;-68
2022/08/31 11:43:13;;;;;;;1.27;0.52;;;21.80;67.20;;;;;;4858020;29;20064;-67
2022/08/31 11:45:41;;;;;;;1.48;0.70;;;21.80;67.50;;;;;;4861161;29;20064;-67
2022/08/31 11:48:27;;;;;;;1.77;0.65;;;21.90;67.00;;;;;;4845300;29;20054;-67
2022/08/31 11:50:53;;;;;;;1.70;0.60;;;22.00;66.10;;;;;;4843772;29;20061;-66
2022/08/31 11:53:33;;;;;;;0.85;0.50;;;22.00;65.60;;;;;;4844277;29;20096;-67
2022/08/31 11:56:02;;;;;;;1.30;0.45;;;21.90;63.20;;;;;;4851838;29;20053;-67
2022/08/31 11:58:32;;;;;;;0.80;0.50;;;21.90;63.70;;;;;;4852214;29;20065;-66
2022/08/31 12:01:08;;;;;;;4.03;0.73;;;21.80;63.10;;;;;;4854442;29;20054;-66
2022/08/31 12:03:41;;;;;;;0.80;0.57;;;21.90;63.60;;;;;;4828027;29;20069;-66
2022/08/31 12:06:35;;;;;;;2.15;0.50;;;22.00;62.80;;;;;;4843607;29;20511;-66
2022/08/31 12:09:22;;;;;;;2.47;0.70;;;22.00;62.20;;;;;;4827109;29;20065;-66
2022/08/31 12:12:06;;;;;;;1.65;0.50;;;22.10;62.70;;;;;;4843676;29;20072;-67
2022/08/31 12:14:51;;;;;;;1.48;0.70;;;22.20;62.40;;;;;;4835365;29;20050;-67
2022/08/31 12:17:45;;;;;;;1.77;0.40;;;22.30;62.20;;;;;;4852247;29;20054;-66
2022/08/31 12:20:15;;;;;;;1.27;0.50;;;22.50;62.10;;;;;;4861581;29;20068;-67
2022/08/31 12:25:55;;;;;;;2.15;0.50;;;22.60;61.80;;;;;;4862221;29;20061;-67
2022/08/31 12:28:34;;;;;;;1.17;0.60;;;22.60;61.90;;;;;;4861408;29;20750;-68
2022/08/31 12:31:08;;;;;;;0.93;0.50;;;22.60;60.90;;;;;;4828427;29;20058;-67
2022/08/31 12:33:39;;;;;;;0.70;0.60;;;22.50;61.30;;;;;;4843566;29;20058;-67
2022/08/31 12:36:23;;;;;;;0.60;0.50;;;22.50;60.00;;;;;;4850288;29;20053;-68
2022/08/31 12:39:08;;;;;;;0.73;0.50;;;22.50;59.10;;;;;;4843594;29;20425;-67
2022/08/31 12:41:36;;;;;;;0.88;0.50;;;22.50;58.80;;;;;;4812018;29;20054;-68
2022/08/31 12:44:03;;;;;;;0.60;0.47;;;22.40;59.70;;;;;;4847590;29;20049;-67
2022/08/31 12:46:56;;;;;;;1.10;0.60;;;22.40;59.90;;;;;;4861213;29;20069;-67
2022/08/31 12:49:44;;;;;;;0.73;0.40;;;22.40;60.50;;;;;;4814521;29;20057;-66
2022/08/31 12:52:24;;;;;;;1.08;0.35;;;22.60;60.90;;;;;;4827895;29;20069;-67
2022/08/31 12:54:52;;;;;;;0.88;0.60;;;22.70;59.90;;;;;;4840118;29;20061;-67
2022/08/31 12:57:52;;;;;;;0.95;0.65;;;22.70;60.10;;;;;;4820604;29;20106;-67
2022/08/31 13:00:31;;;;;;;1.48;0.93;;;22.80;59.80;;;;;;4845881;29;20046;-68
2022/08/31 13:03:24;;;;;;;0.60;0.52;;;22.90;58.10;;;;;;4842622;29;20057;-67
2022/08/31 13:06:07;;;;;;;0.90;0.50;;;22.80;58.00;;;;;;4815689;29;20057;-67
2022/08/31 13:08:45;;;;;;;3.45;0.80;;;22.80;58.00;;;;;;4849689;29;20057;-67
2022/08/31 13:11:32;;;;;;;2.08;0.57;;;22.80;58.70;;;;;;4850836;29;20046;-68
2022/08/31 13:14:18;;;;;;;1.88;0.60;;;22.80;58.60;;;;;;4853531;29;20057;-68
2022/08/31 13:16:47;;;;;;;1.50;0.50;;;22.70;57.50;;;;;;4843159;29;20064;-67
2022/08/31 13:19:29;;;;;;;1.83;0.60;;;22.70;58.00;;;;;;4857330;29;20554;-68
2022/08/31 13:22:08;;;;;;;2.00;0.50;;;22.70;57.80;;;;;;4839009;29;20514;-68
2022/08/31 13:24:39;;;;;;;1.65;0.50;;;22.90;57.50;;;;;;4826230;29;20062;-68
2022/08/31 13:27:10;;;;;;;2.60;0.73;;;22.90;58.00;;;;;;4842291;29;20124;-68
2022/08/31 13:29:45;;;;;;;1.52;0.60;;;23.00;57.10;;;;;;4826124;29;20081;-67
2022/08/31 13:32:22;;;;;;;1.48;0.80;;;23.00;57.20;;;;;;4826222;29;20062;-67
2022/08/31 13:34:48;;;;;;;2.15;0.50;;;23.10;56.30;;;;;;4829169;29;20064;-67